sensor_id;sensor_type;location;lat;lon;timestamp;pressure;altitude;pressure_sealevel;temperature;humidity
55032;BME280;40928;51.076;7.950;2022-10-16T00:00:35;96689.28;;;11.15;100.00
55032;BME280;40928;51.076;7.950;2022-10-16T00:03:03;96684.78;;;11.16;100.00
55032;BME280;40928;51.076;7.950;2022-10-16T00:05:29;96685.34;;;11.18;100.00
55032;BME280;40928;51.076;7.950;2022-10-16T00:07:55;96679.44;;;11.16;100.00
55032;BME280;40928;51.076;7.950;2022-10-16T00:10:21;96682.09;;;11.16;100.00
55032;BME280;40928;51.076;7.950;2022-10-16T00:12:46;96680.00;;;11.18;100.00
55032;BME280;40928;51.076;7.950;2022-10-16T00:15:12;96671.16;;;11.17;100.00
55032;BME280;40928;51.076;7.950;2022-10-16T00:17:37;96683.47;;;11.18;100.00
55032;BME280;40928;51.076;7.950;2022-10-16T00:20:03;96676.81;;;11.21;100.00
55032;BME280;40928;51.076;7.950;2022-10-16T00:22:29;96684.38;;;11.29;100.00
55032;BME280;40928;51.076;7.950;2022-10-16T00:24:54;96680.66;;;11.30;100.00
55032;BME280;40928;51.076;7.950;2022-10-16T00:27:20;96690.03;;;11.33;100.00
55032;BME280;40928;51.076;7.950;2022-10-16T00:29:49;96693.50;;;11.33;100.00
55032;BME280;40928;51.076;7.950;2022-10-16T00:32:16;96694.06;;;11.35;100.00
55032;BME280;40928;51.076;7.950;2022-10-16T00:34:42;96699.22;;;11.42;100.00
55032;BME280;40928;51.076;7.950;2022-10-16T00:37:08;96700.31;;;11.46;100.00
55032;BME280;40928;51.076;7.950;2022-10-16T00:39:33;96697.41;;;11.48;100.00
55032;BME280;40928;51.076;7.950;2022-10-16T00:41:59;96703.34;;;11.55;100.00
55032;BME280;40928;51.076;7.950;2022-10-16T00:44:50;96705.28;;;11.60;100.00
55032;BME280;40928;51.076;7.950;2022-10-16T00:47:22;96699.72;;;11.66;100.00
55032;BME280;40928;51.076;7.950;2022-10-16T00:49:52;96698.13;;;11.70;100.00
55032;BME280;40928;51.076;7.950;2022-10-16T00:52:20;96705.94;;;11.77;100.00
55032;BME280;40928;51.076;7.950;2022-10-16T00:54:46;96706.25;;;11.81;100.00
55032;BME280;40928;51.076;7.950;2022-10-16T00:57:12;96705.72;;;11.84;100.00
55032;BME280;40928;51.076;7.950;2022-10-16T00:59:40;96715.94;;;11.87;100.00
55032;BME280;40928;51.076;7.950;2022-10-16T01:02:09;96715.16;;;11.92;100.00
55032;BME280;40928;51.076;7.950;2022-10-16T01:04:38;96716.03;;;11.97;100.00
55032;BME280;40928;51.076;7.950;2022-10-16T01:07:13;96715.84;;;12.04;100.00
55032;BME280;40928;51.076;7.950;2022-10-16T01:12:48;96713.72;;;12.06;100.00
55032;BME280;40928;51.076;7.950;2022-10-16T01:15:32;96716.41;;;12.06;100.00
55032;BME280;40928;51.076;7.950;2022-10-16T01:21:02;96721.75;;;12.06;100.00
55032;BME280;40928;51.076;7.950;2022-10-16T01:26:42;96705.44;;;12.08;100.00
55032;BME280;40928;51.076;7.950;2022-10-16T01:29:18;96714.53;;;12.07;100.00
55032;BME280;40928;51.076;7.950;2022-10-16T01:31:49;96721.50;;;12.08;100.00
55032;BME280;40928;51.076;7.950;2022-10-16T01:34:51;96731.94;;;12.09;100.00
55032;BME280;40928;51.076;7.950;2022-10-16T01:37:32;96733.00;;;12.08;100.00
55032;BME280;40928;51.076;7.950;2022-10-16T01:40:00;96733.09;;;12.18;100.00
55032;BME280;40928;51.076;7.950;2022-10-16T01:42:35;96732.47;;;12.11;100.00
55032;BME280;40928;51.076;7.950;2022-10-16T01:45:03;96738.91;;;12.10;100.00
55032;BME280;40928;51.076;7.950;2022-10-16T01:47:32;96729.81;;;12.11;100.00
55032;BME280;40928;51.076;7.950;2022-10-16T01:49:59;96737.03;;;12.11;100.00
55032;BME280;40928;51.076;7.950;2022-10-16T01:52:27;96720.94;;;12.06;100.00
55032;BME280;40928;51.076;7.950;2022-10-16T01:54:56;96719.59;;;12.03;100.00
55032;BME280;40928;51.076;7.950;2022-10-16T01:57:24;96710.44;;;11.99;100.00
55032;BME280;40928;51.076;7.950;2022-10-16T01:59:54;96701.03;;;11.96;100.00
55032;BME280;40928;51.076;7.950;2022-10-16T02:02:22;96708.50;;;11.94;100.00
55032;BME280;40928;51.076;7.950;2022-10-16T02:05:03;96720.50;;;11.92;100.00
55032;BME280;40928;51.076;7.950;2022-10-16T02:07:29;96726.69;;;11.92;100.00
55032;BME280;40928;51.076;7.950;2022-10-16T02:09:55;96745.41;;;11.92;100.00
55032;BME280;40928;51.076;7.950;2022-10-16T02:12:27;96741.38;;;11.90;100.00
55032;BME280;40928;51.076;7.950;2022-10-16T02:14:54;96738.38;;;11.86;100.00
55032;BME280;40928;51.076;7.950;2022-10-16T02:17:20;96743.19;;;11.84;100.00
55032;BME280;40928;51.076;7.950;2022-10-16T02:19:47;96746.69;;;11.84;100.00
55032;BME280;40928;51.076;7.950;2022-10-16T02:22:34;96746.63;;;11.79;100.00
55032;BME280;40928;51.076;7.950;2022-10-16T02:25:40;96746.13;;;11.82;100.00
55032;BME280;40928;51.076;7.950;2022-10-16T02:28:31;96749.56;;;11.78;100.00
55032;BME280;40928;51.076;7.950;2022-10-16T02:31:04;96742.13;;;11.85;100.00
55032;BME280;40928;51.076;7.950;2022-10-16T02:33:33;96755.41;;;11.75;100.00
55032;BME280;40928;51.076;7.950;2022-10-16T02:36:01;96760.66;;;11.64;100.00
55032;BME280;40928;51.076;7.950;2022-10-16T02:38:27;96761.97;;;11.62;100.00
55032;BME280;40928;51.076;7.950;2022-10-16T02:40:56;96760.34;;;11.61;100.00
55032;BME280;40928;51.076;7.950;2022-10-16T02:43:21;96752.81;;;11.85;100.00
55032;BME280;40928;51.076;7.950;2022-10-16T02:45:47;96747.84;;;11.66;100.00
55032;BME280;40928;51.076;7.950;2022-10-16T02:48:12;96752.19;;;11.72;100.00
55032;BME280;40928;51.076;7.950;2022-10-16T02:50:38;96754.22;;;11.60;100.00
55032;BME280;40928;51.076;7.950;2022-10-16T02:53:03;96759.56;;;11.60;100.00
55032;BME280;40928;51.076;7.950;2022-10-16T02:55:29;96760.53;;;11.54;100.00
55032;BME280;40928;51.076;7.950;2022-10-16T02:57:54;96757.34;;;11.52;100.00
55032;BME280;40928;51.076;7.950;2022-10-16T03:00:20;96751.44;;;11.50;100.00
55032;BME280;40928;51.076;7.950;2022-10-16T03:02:46;96758.19;;;11.57;100.00
55032;BME280;40928;51.076;7.950;2022-10-16T03:05:12;96745.41;;;11.65;100.00
55032;BME280;40928;51.076;7.950;2022-10-16T03:07:38;96749.66;;;11.61;100.00
55032;BME280;40928;51.076;7.950;2022-10-16T03:10:04;96760.63;;;11.59;100.00
55032;BME280;40928;51.076;7.950;2022-10-16T03:12:30;96759.28;;;11.62;100.00
55032;BME280;40928;51.076;7.950;2022-10-16T03:14:56;96767.03;;;11.58;100.00
55032;BME280;40928;51.076;7.950;2022-10-16T03:17:22;96767.03;;;11.58;100.00
55032;BME280;40928;51.076;7.950;2022-10-16T03:19:48;96772.38;;;11.58;100.00
55032;BME280;40928;51.076;7.950;2022-10-16T03:22:14;96760.41;;;11.66;100.00
55032;BME280;40928;51.076;7.950;2022-10-16T03:24:40;96783.13;;;11.63;100.00
55032;BME280;40928;51.076;7.950;2022-10-16T03:27:05;96774.28;;;11.63;100.00
55032;BME280;40928;51.076;7.950;2022-10-16T03:29:31;96752.88;;;11.63;100.00
55032;BME280;40928;51.076;7.950;2022-10-16T03:31:58;96756.63;;;11.62;100.00
55032;BME280;40928;51.076;7.950;2022-10-16T03:34:24;96744.13;;;11.67;100.00
55032;BME280;40928;51.076;7.950;2022-10-16T03:36:49;96741.97;;;11.69;100.00
55032;BME280;40928;51.076;7.950;2022-10-16T03:39:15;96742.03;;;11.75;100.00
55032;BME280;40928;51.076;7.950;2022-10-16T03:41:40;96745.78;;;11.73;100.00
55032;BME280;40928;51.076;7.950;2022-10-16T03:44:06;96753.09;;;11.83;100.00
55032;BME280;40928;51.076;7.950;2022-10-16T03:46:32;96748.50;;;11.79;100.00
55032;BME280;40928;51.076;7.950;2022-10-16T03:48:57;96753.88;;;11.84;100.00
55032;BME280;40928;51.076;7.950;2022-10-16T03:51:23;96750.91;;;11.80;100.00
55032;BME280;40928;51.076;7.950;2022-10-16T03:53:48;96756.03;;;11.82;100.00
55032;BME280;40928;51.076;7.950;2022-10-16T03:56:14;96759.50;;;11.82;100.00
55032;BME280;40928;51.076;7.950;2022-10-16T03:58:40;96751.81;;;11.91;100.00
55032;BME280;40928;51.076;7.950;2022-10-16T04:01:05;96730.69;;;11.90;100.00
55032;BME280;40928;51.076;7.950;2022-10-16T04:03:30;96733.59;;;11.88;100.00
55032;BME280;40928;51.076;7.950;2022-10-16T04:05:56;96727.47;;;11.87;100.00
55032;BME280;40928;51.076;7.950;2022-10-16T04:08:22;96723.16;;;11.86;100.00
55032;BME280;40928;51.076;7.950;2022-10-16T04:10:48;96740.50;;;11.84;100.00
55032;BME280;40928;51.076;7.950;2022-10-16T04:13:13;96729.34;;;11.92;100.00
55032;BME280;40928;51.076;7.950;2022-10-16T04:15:39;96736.78;;;11.85;100.00
55032;BME280;40928;51.076;7.950;2022-10-16T04:18:05;96735.16;;;11.84;100.00
55032;BME280;40928;51.076;7.950;2022-10-16T04:20:31;96746.94;;;11.83;100.00
55032;BME280;40928;51.076;7.950;2022-10-16T04:22:57;96750.72;;;11.87;100.00
55032;BME280;40928;51.076;7.950;2022-10-16T04:25:22;96758.19;;;11.85;100.00
55032;BME280;40928;51.076;7.950;2022-10-16T04:27:48;96772.16;;;11.92;100.00
55032;BME280;40928;51.076;7.950;2022-10-16T04:30:14;96793.53;;;11.87;100.00
55032;BME280;40928;51.076;7.950;2022-10-16T04:32:40;96781.75;;;11.88;100.00
55032;BME280;40928;51.076;7.950;2022-10-16T04:35:06;96791.88;;;11.81;100.00
55032;BME280;40928;51.076;7.950;2022-10-16T04:37:32;96797.31;;;11.91;100.00
55032;BME280;40928;51.076;7.950;2022-10-16T04:39:57;96812.38;;;11.97;100.00
55032;BME280;40928;51.076;7.950;2022-10-16T04:42:23;96803.16;;;11.88;100.00
55032;BME280;40928;51.076;7.950;2022-10-16T04:44:48;96791.09;;;11.85;100.00
55032;BME280;40928;51.076;7.950;2022-10-16T04:47:14;96774.50;;;11.83;100.00
55032;BME280;40928;51.076;7.950;2022-10-16T04:49:39;96782.78;;;11.82;100.00
55032;BME280;40928;51.076;7.950;2022-10-16T04:52:05;96792.44;;;11.83;100.00
55032;BME280;40928;51.076;7.950;2022-10-16T04:54:31;96794.53;;;11.81;100.00
55032;BME280;40928;51.076;7.950;2022-10-16T04:56:56;96783.94;;;11.91;100.00
55032;BME280;40928;51.076;7.950;2022-10-16T04:59:22;96780.41;;;11.85;100.00
55032;BME280;40928;51.076;7.950;2022-10-16T05:01:48;96795.63;;;11.85;100.00
55032;BME280;40928;51.076;7.950;2022-10-16T05:04:14;96795.09;;;11.83;100.00
55032;BME280;40928;51.076;7.950;2022-10-16T05:06:41;96797.22;;;11.81;100.00
55032;BME280;40928;51.076;7.950;2022-10-16T05:09:07;96806.41;;;11.90;100.00
55032;BME280;40928;51.076;7.950;2022-10-16T05:11:32;96812.22;;;11.82;100.00
55032;BME280;40928;51.076;7.950;2022-10-16T05:13:58;96802.38;;;11.87;100.00
55032;BME280;40928;51.076;7.950;2022-10-16T05:16:23;96796.69;;;11.84;100.00
55032;BME280;40928;51.076;7.950;2022-10-16T05:18:51;96803.84;;;11.78;100.00
55032;BME280;40928;51.076;7.950;2022-10-16T05:21:17;96806.81;;;11.77;100.00
55032;BME280;40928;51.076;7.950;2022-10-16T05:23:43;96811.09;;;11.78;100.00
55032;BME280;40928;51.076;7.950;2022-10-16T05:26:08;96820.97;;;11.77;100.00
55032;BME280;40928;51.076;7.950;2022-10-16T05:28:34;96818.91;;;11.84;100.00
55032;BME280;40928;51.076;7.950;2022-10-16T05:31:04;96819.41;;;11.81;100.00
55032;BME280;40928;51.076;7.950;2022-10-16T05:33:30;96840.63;;;11.88;100.00
55032;BME280;40928;51.076;7.950;2022-10-16T05:35:55;96840.81;;;11.81;100.00
55032;BME280;40928;51.076;7.950;2022-10-16T05:38:21;96832.28;;;11.84;100.00
55032;BME280;40928;51.076;7.950;2022-10-16T05:40:53;96820.06;;;11.94;100.00
55032;BME280;40928;51.076;7.950;2022-10-16T05:43:19;96827.50;;;11.86;100.00
55032;BME280;40928;51.076;7.950;2022-10-16T05:46:01;96836.94;;;11.94;100.00
55032;BME280;40928;51.076;7.950;2022-10-16T05:48:27;96837.44;;;11.91;100.00
55032;BME280;40928;51.076;7.950;2022-10-16T05:51:01;96834.72;;;11.86;100.00
55032;BME280;40928;51.076;7.950;2022-10-16T05:53:28;96839.25;;;11.85;100.00
55032;BME280;40928;51.076;7.950;2022-10-16T05:55:54;96855.88;;;11.87;100.00
55032;BME280;40928;51.076;7.950;2022-10-16T05:58:21;96842.25;;;11.89;100.00
55032;BME280;40928;51.076;7.950;2022-10-16T06:00:56;96853.63;;;12.01;100.00
55032;BME280;40928;51.076;7.950;2022-10-16T06:03:22;96863.16;;;11.92;100.00
55032;BME280;40928;51.076;7.950;2022-10-16T06:05:47;96859.50;;;11.98;100.00
55032;BME280;40928;51.076;7.950;2022-10-16T06:08:13;96859.53;;;12.03;100.00
55032;BME280;40928;51.076;7.950;2022-10-16T06:10:38;96843.97;;;12.00;100.00
55032;BME280;40928;51.076;7.950;2022-10-16T06:13:04;96857.44;;;12.06;100.00
55032;BME280;40928;51.076;7.950;2022-10-16T06:15:29;96864.34;;;12.01;100.00
55032;BME280;40928;51.076;7.950;2022-10-16T06:17:55;96862.19;;;11.98;100.00
55032;BME280;40928;51.076;7.950;2022-10-16T06:20:20;96859.50;;;11.98;100.00
55032;BME280;40928;51.076;7.950;2022-10-16T06:22:46;96875.59;;;12.03;100.00
55032;BME280;40928;51.076;7.950;2022-10-16T06:25:12;96879.47;;;12.13;100.00
55032;BME280;40928;51.076;7.950;2022-10-16T06:27:40;96886.97;;;12.16;100.00
55032;BME280;40928;51.076;7.950;2022-10-16T06:30:06;96890.16;;;12.13;100.00
55032;BME280;40928;51.076;7.950;2022-10-16T06:32:32;96878.91;;;12.11;100.00
55032;BME280;40928;51.076;7.950;2022-10-16T06:34:57;96878.13;;;12.15;100.00
55032;BME280;40928;51.076;7.950;2022-10-16T06:37:23;96876.31;;;12.21;100.00
55032;BME280;40928;51.076;7.950;2022-10-16T06:39:50;96881.09;;;12.19;100.00
55032;BME280;40928;51.076;7.950;2022-10-16T06:42:17;96895.06;;;12.21;100.00
55032;BME280;40928;51.076;7.950;2022-10-16T06:44:44;96898.56;;;12.22;100.00
55032;BME280;40928;51.076;7.950;2022-10-16T06:47:09;96893.53;;;12.30;100.00
55032;BME280;40928;51.076;7.950;2022-10-16T06:49:35;96905.56;;;12.28;100.00
55032;BME280;40928;51.076;7.950;2022-10-16T06:52:01;96914.91;;;12.25;100.00
55032;BME280;40928;51.076;7.950;2022-10-16T06:54:27;96917.28;;;12.22;100.00
55032;BME280;40928;51.076;7.950;2022-10-16T06:56:53;96919.97;;;12.22;100.00
55032;BME280;40928;51.076;7.950;2022-10-16T06:59:20;96923.38;;;12.17;100.00
55032;BME280;40928;51.076;7.950;2022-10-16T07:01:46;96924.78;;;12.25;100.00
55032;BME280;40928;51.076;7.950;2022-10-16T07:04:12;96918.72;;;12.29;100.00
55032;BME280;40928;51.076;7.950;2022-10-16T07:06:38;96929.34;;;12.24;100.00
55032;BME280;40928;51.076;7.950;2022-10-16T07:09:05;96943.31;;;12.26;100.00
55032;BME280;40928;51.076;7.950;2022-10-16T07:11:31;96951.63;;;12.30;100.00
55032;BME280;40928;51.076;7.950;2022-10-16T07:13:57;96953.81;;;12.33;100.00
55032;BME280;40928;51.076;7.950;2022-10-16T07:16:27;96946.28;;;12.30;100.00
55032;BME280;40928;51.076;7.950;2022-10-16T07:18:56;96955.94;;;12.31;100.00
55032;BME280;40928;51.076;7.950;2022-10-16T07:21:27;96975.03;;;12.40;100.00
55032;BME280;40928;51.076;7.950;2022-10-16T07:23:58;96967.59;;;12.47;100.00
55032;BME280;40928;51.076;7.950;2022-10-16T07:26:25;96966.31;;;12.49;100.00
55032;BME280;40928;51.076;7.950;2022-10-16T07:28:51;96983.72;;;12.52;100.00
55032;BME280;40928;51.076;7.950;2022-10-16T07:31:19;96990.78;;;12.63;100.00
55032;BME280;40928;51.076;7.950;2022-10-16T07:33:45;96984.38;;;12.64;100.00
55032;BME280;40928;51.076;7.950;2022-10-16T07:36:13;96989.38;;;12.56;100.00
55032;BME280;40928;51.076;7.950;2022-10-16T07:38:39;96998.25;;;12.56;100.00
55032;BME280;40928;51.076;7.950;2022-10-16T07:41:06;96981.41;;;12.61;100.00
55032;BME280;40928;51.076;7.950;2022-10-16T07:43:33;96992.91;;;12.61;100.00
55032;BME280;40928;51.076;7.950;2022-10-16T07:45:59;96991.66;;;12.69;100.00
55032;BME280;40928;51.076;7.950;2022-10-16T07:48:27;97010.16;;;12.71;100.00
55032;BME280;40928;51.076;7.950;2022-10-16T07:50:59;97020.59;;;12.67;100.00
55032;BME280;40928;51.076;7.950;2022-10-16T07:53:25;97018.50;;;12.74;100.00
55032;BME280;40928;51.076;7.950;2022-10-16T07:55:51;97007.56;;;12.76;100.00
55032;BME280;40928;51.076;7.950;2022-10-16T07:58:17;97017.81;;;12.84;100.00
55032;BME280;40928;51.076;7.950;2022-10-16T08:00:42;97020.22;;;12.86;100.00
55032;BME280;40928;51.076;7.950;2022-10-16T08:03:08;97020.53;;;12.89;100.00
55032;BME280;40928;51.076;7.950;2022-10-16T08:05:34;97024.31;;;12.93;100.00
55032;BME280;40928;51.076;7.950;2022-10-16T08:08:01;97031.97;;;13.07;100.00
55032;BME280;40928;51.076;7.950;2022-10-16T08:10:28;97029.50;;;13.05;100.00
55032;BME280;40928;51.076;7.950;2022-10-16T08:12:54;97044.03;;;13.09;100.00
55032;BME280;40928;51.076;7.950;2022-10-16T08:15:20;97045.69;;;13.16;100.00
55032;BME280;40928;51.076;7.950;2022-10-16T08:18:03;97060.13;;;13.09;100.00
55032;BME280;40928;51.076;7.950;2022-10-16T08:20:29;97052.38;;;13.13;100.00
55032;BME280;40928;51.076;7.950;2022-10-16T08:22:56;97059.28;;;13.09;100.00
55032;BME280;40928;51.076;7.950;2022-10-16T08:25:22;97072.25;;;13.17;100.00
55032;BME280;40928;51.076;7.950;2022-10-16T08:27:48;97072.56;;;13.21;100.00
55032;BME280;40928;51.076;7.950;2022-10-16T08:30:15;97074.66;;;13.14;100.00
55032;BME280;40928;51.076;7.950;2022-10-16T08:32:44;97073.53;;;13.09;100.00
55032;BME280;40928;51.076;7.950;2022-10-16T08:35:10;97073.16;;;13.01;100.00
55032;BME280;40928;51.076;7.950;2022-10-16T08:37:36;97078.81;;;12.99;100.00
55032;BME280;40928;51.076;7.950;2022-10-16T08:40:05;97083.13;;;13.05;100.00
55032;BME280;40928;51.076;7.950;2022-10-16T08:42:40;97079.13;;;13.08;100.00
55032;BME280;40928;51.076;7.950;2022-10-16T08:45:19;97077.53;;;13.07;100.00
55032;BME280;40928;51.076;7.950;2022-10-16T08:50:30;97084.97;;;13.00;100.00
55032;BME280;40928;51.076;7.950;2022-10-16T08:52:57;97085.66;;;13.17;100.00
55032;BME280;40928;51.076;7.950;2022-10-16T08:58:11;97086.16;;;13.14;100.00
55032;BME280;40928;51.076;7.950;2022-10-16T09:00:38;97095.38;;;13.23;100.00
55032;BME280;40928;51.076;7.950;2022-10-16T09:03:17;97099.09;;;13.50;100.00
55032;BME280;40928;51.076;7.950;2022-10-16T09:08:52;97101.06;;;14.45;100.00
55032;BME280;40928;51.076;7.950;2022-10-16T09:14:35;97112.81;;;14.29;96.29
55032;BME280;40928;51.076;7.950;2022-10-16T09:19:59;97132.25;;;14.04;99.97
55032;BME280;40928;51.076;7.950;2022-10-16T09:22:30;97120.09;;;14.34;99.34
55032;BME280;40928;51.076;7.950;2022-10-16T09:25:00;97123.03;;;14.37;98.03
55032;BME280;40928;51.076;7.950;2022-10-16T09:27:26;97126.22;;;14.77;96.13
55032;BME280;40928;51.076;7.950;2022-10-16T09:29:52;97118.94;;;14.72;94.48
55032;BME280;40928;51.076;7.950;2022-10-16T09:32:19;97137.03;;;14.98;93.20
55032;BME280;40928;51.076;7.950;2022-10-16T09:34:49;97134.41;;;15.34;90.16
55032;BME280;40928;51.076;7.950;2022-10-16T09:37:20;97139.28;;;15.42;89.15
55032;BME280;40928;51.076;7.950;2022-10-16T09:39:54;97140.34;;;15.31;89.43
55032;BME280;40928;51.076;7.950;2022-10-16T09:42:23;97142.25;;;15.46;89.37
55032;BME280;40928;51.076;7.950;2022-10-16T09:44:51;97139.56;;;15.61;87.12
55032;BME280;40928;51.076;7.950;2022-10-16T09:47:21;97141.72;;;16.11;84.23
55032;BME280;40928;51.076;7.950;2022-10-16T09:50:24;97144.13;;;15.56;85.27
55032;BME280;40928;51.076;7.950;2022-10-16T09:53:06;97146.00;;;15.45;86.44
55032;BME280;40928;51.076;7.950;2022-10-16T09:55:33;97144.38;;;15.23;86.95
55032;BME280;40928;51.076;7.950;2022-10-16T09:57:59;97147.78;;;15.03;86.93
55032;BME280;40928;51.076;7.950;2022-10-16T10:00:25;97146.84;;;15.71;84.71
55032;BME280;40928;51.076;7.950;2022-10-16T10:02:51;97143.31;;;15.24;83.79
55032;BME280;40928;51.076;7.950;2022-10-16T10:05:37;97133.53;;;14.97;85.66
55032;BME280;40928;51.076;7.950;2022-10-16T10:08:04;97145.44;;;15.22;85.17
55032;BME280;40928;51.076;7.950;2022-10-16T10:10:40;97156.00;;;16.01;83.47
55032;BME280;40928;51.076;7.950;2022-10-16T10:13:35;97153.72;;;16.70;77.75
55032;BME280;40928;51.076;7.950;2022-10-16T10:16:01;97159.47;;;16.33;78.15
55032;BME280;40928;51.076;7.950;2022-10-16T10:18:27;97154.13;;;16.17;79.28
55032;BME280;40928;51.076;7.950;2022-10-16T10:21:00;97153.84;;;16.03;79.13
55032;BME280;40928;51.076;7.950;2022-10-16T10:23:28;97166.50;;;15.72;78.65
55032;BME280;40928;51.076;7.950;2022-10-16T10:26:10;97158.16;;;16.14;78.40
55032;BME280;40928;51.076;7.950;2022-10-16T10:31:37;97154.16;;;17.83;73.45
55032;BME280;40928;51.076;7.950;2022-10-16T10:40:09;97148.88;;;20.75;60.78
55032;BME280;40928;51.076;7.950;2022-10-16T10:45:46;97142.78;;;20.22;62.77
55032;BME280;40928;51.076;7.950;2022-10-16T10:56:51;97133.84;;;19.17;62.86
55032;BME280;40928;51.076;7.950;2022-10-16T11:01:56;97142.84;;;19.13;62.75
55032;BME280;40928;51.076;7.950;2022-10-16T11:04:46;97135.75;;;19.36;63.14
55032;BME280;40928;51.076;7.950;2022-10-16T11:07:57;97152.72;;;20.41;61.18
55032;BME280;40928;51.076;7.950;2022-10-16T11:13:22;97156.31;;;19.56;62.28
55032;BME280;40928;51.076;7.950;2022-10-16T11:15:55;97160.19;;;19.69;62.27
55032;BME280;40928;51.076;7.950;2022-10-16T11:18:27;97151.69;;;20.09;59.51
55032;BME280;40928;51.076;7.950;2022-10-16T11:21:00;97152.00;;;20.82;56.34
55032;BME280;40928;51.076;7.950;2022-10-16T11:23:36;97145.22;;;21.08;56.02
55032;BME280;40928;51.076;7.950;2022-10-16T11:26:05;97142.13;;;20.87;55.85
55032;BME280;40928;51.076;7.950;2022-10-16T11:28:45;97154.56;;;21.02;53.62
55032;BME280;40928;51.076;7.950;2022-10-16T11:31:19;97142.91;;;20.73;54.89
55032;BME280;40928;51.076;7.950;2022-10-16T11:36:23;97139.34;;;20.17;56.71
55032;BME280;40928;51.076;7.950;2022-10-16T11:41:35;97154.38;;;19.76;59.50
55032;BME280;40928;51.076;7.950;2022-10-16T11:44:42;97145.31;;;18.85;60.71
55032;BME280;40928;51.076;7.950;2022-10-16T11:47:35;97159.44;;;18.58;61.69
55032;BME280;40928;51.076;7.950;2022-10-16T11:50:22;97152.59;;;18.41;62.31
55032;BME280;40928;51.076;7.950;2022-10-16T11:52:58;97147.63;;;18.48;63.51
55032;BME280;40928;51.076;7.950;2022-10-16T11:55:40;97161.84;;;18.59;64.25
55032;BME280;40928;51.076;7.950;2022-10-16T12:01:33;97165.03;;;18.66;63.88
55032;BME280;40928;51.076;7.950;2022-10-16T12:06:13;97157.00;;;18.56;62.13
55032;BME280;40928;51.076;7.950;2022-10-16T12:08:45;97153.28;;;18.28;62.58
55032;BME280;40928;51.076;7.950;2022-10-16T12:13:50;97166.31;;;17.86;65.68
55032;BME280;40928;51.076;7.950;2022-10-16T12:18:44;97165.22;;;17.47;69.11
55032;BME280;40928;51.076;7.950;2022-10-16T12:21:11;97172.66;;;17.20;68.35
55032;BME280;40928;51.076;7.950;2022-10-16T12:23:54;97177.47;;;17.29;69.21
55032;BME280;40928;51.076;7.950;2022-10-16T12:26:28;97180.16;;;17.29;68.53
55032;BME280;40928;51.076;7.950;2022-10-16T12:28:55;97169.13;;;17.25;69.12
55032;BME280;40928;51.076;7.950;2022-10-16T12:31:21;97174.69;;;17.44;68.62
55032;BME280;40928;51.076;7.950;2022-10-16T12:34:00;97180.28;;;17.53;66.69
55032;BME280;40928;51.076;7.950;2022-10-16T12:36:32;97178.06;;;17.65;65.00
55032;BME280;40928;51.076;7.950;2022-10-16T12:38:59;97171.75;;;17.75;65.52
55032;BME280;40928;51.076;7.950;2022-10-16T12:41:29;97175.94;;;18.56;63.77
55032;BME280;40928;51.076;7.950;2022-10-16T12:43:56;97170.44;;;20.52;56.60
55032;BME280;40928;51.076;7.950;2022-10-16T12:46:45;97181.47;;;20.42;57.08
55032;BME280;40928;51.076;7.950;2022-10-16T12:51:39;97181.06;;;21.33;52.49
55032;BME280;40928;51.076;7.950;2022-10-16T13:15:55;97179.84;;;23.60;46.58
55032;BME280;40928;51.076;7.950;2022-10-16T13:21:27;97179.91;;;22.61;46.51
55032;BME280;40928;51.076;7.950;2022-10-16T13:29:14;97192.16;;;20.52;52.50
55032;BME280;40928;51.076;7.950;2022-10-16T13:31:40;97195.41;;;20.82;53.20
55032;BME280;40928;51.076;7.950;2022-10-16T13:34:12;97187.28;;;20.35;52.64
55032;BME280;40928;51.076;7.950;2022-10-16T13:36:58;97190.31;;;20.01;54.40
55032;BME280;40928;51.076;7.950;2022-10-16T13:39:28;97185.69;;;19.82;55.53
55032;BME280;40928;51.076;7.950;2022-10-16T13:42:13;97179.75;;;19.04;58.05
55032;BME280;40928;51.076;7.950;2022-10-16T13:44:43;97183.63;;;18.97;59.37
55032;BME280;40928;51.076;7.950;2022-10-16T13:47:17;97186.38;;;18.38;61.30
55032;BME280;40928;51.076;7.950;2022-10-16T13:49:43;97185.41;;;18.29;62.36
55032;BME280;40928;51.076;7.950;2022-10-16T13:52:18;97187.19;;;18.09;63.30
55032;BME280;40928;51.076;7.950;2022-10-16T13:54:44;97192.81;;;17.78;64.83
55032;BME280;40928;51.076;7.950;2022-10-16T13:57:14;97193.75;;;17.63;65.58
55032;BME280;40928;51.076;7.950;2022-10-16T13:59:40;97193.22;;;17.61;65.96
55032;BME280;40928;51.076;7.950;2022-10-16T14:02:27;97190.59;;;17.51;67.48
55032;BME280;40928;51.076;7.950;2022-10-16T14:04:54;97203.94;;;17.27;68.28
55032;BME280;40928;51.076;7.950;2022-10-16T14:07:26;97199.72;;;17.10;70.02
55032;BME280;40928;51.076;7.950;2022-10-16T14:09:53;97197.03;;;17.05;70.79
55032;BME280;40928;51.076;7.950;2022-10-16T14:12:22;97205.66;;;17.12;70.62
55032;BME280;40928;51.076;7.950;2022-10-16T14:14:53;97199.75;;;17.00;71.70
55032;BME280;40928;51.076;7.950;2022-10-16T14:17:26;97207.06;;;16.84;73.11
55032;BME280;40928;51.076;7.950;2022-10-16T14:19:55;97205.44;;;16.83;73.39
55032;BME280;40928;51.076;7.950;2022-10-16T14:22:42;97204.06;;;16.85;73.15
55032;BME280;40928;51.076;7.950;2022-10-16T14:25:22;97194.91;;;16.86;73.57
55032;BME280;40928;51.076;7.950;2022-10-16T14:27:58;97197.88;;;16.85;73.87
55032;BME280;40928;51.076;7.950;2022-10-16T14:30:26;97195.00;;;16.61;74.87
55032;BME280;40928;51.076;7.950;2022-10-16T14:33:02;97205.19;;;16.69;74.95
55032;BME280;40928;51.076;7.950;2022-10-16T14:35:34;97198.72;;;16.75;74.87
55032;BME280;40928;51.076;7.950;2022-10-16T14:38:04;97201.44;;;16.70;75.54
55032;BME280;40928;51.076;7.950;2022-10-16T14:40:35;97194.41;;;16.69;75.99
55032;BME280;40928;51.076;7.950;2022-10-16T14:43:03;97193.88;;;16.72;75.94